KFTY/FTY METAR and TAF weather

Enter ICAO airport designator
Station Type Date Time Source
KFTY METAR 2019/06/18 04:53 UTC NOAA

KFTY 180453Z 00000KT 10SM CLR 23/22 A3003 RMK AO2 RAE14 SLP159 P0000 T02280217 403280200


Station Type Date Time Source
KFTY Decoded METAR 2019/06/18 04:53 UTC NOAA

ATLANTA FULTON COUNTY AIRPORT , GA, United States (KFTY) 33-47N 84-31W 263M
Jun 18, 2019 - 12:53 AM EDT / 2019.06.18 0453 UTC
Wind: Calm:0
Visibility: 10 mile(s):0
Sky conditions: clear
Precipitation last hour: A trace
Temperature: 73.0 F (22.8 C)
Dew Point: 71.1 F (21.7 C)
Relative Humidity: 93%
Pressure (altimeter): 30.03 in. Hg (1016 hPa)
ob: KFTY 180453Z 00000KT 10SM CLR 23/22 A3003 RMK AO2 RAE14 SLP159 P0000 T02280217 403280200
cycle: 5

Station Type Date Time Source
KFTY TAF 2019/06/18 04:39 UTC NOAA

TAF
AMD KFTY 180336Z 1804/1824 VRB04KT P6SM VCSH FEW040 SCT070 BKN100
TEMPO 1804/1805 VRB10G25KT 6SM -TSRA SCT030CB BKN070
FM181000 00000KT 6SM BR BKN012
FM181400 22004KT P6SM BKN025
FM181700 22006KT P6SM VCSH BKN040 PROB30 1818/1824 4SM TSRA OVC030CB

Example: see airport list